createdAt,value
2022-09-06T00:01:38.829Z,1.42
2022-09-06T00:06:30.586Z,1.35
2022-09-06T00:11:22.591Z,1.23
2022-09-06T00:16:21.038Z,1.02
2022-09-06T00:21:18.004Z,0.80
2022-09-06T00:26:09.694Z,0.80
2022-09-06T00:31:12.682Z,0.68
2022-09-06T00:36:04.982Z,0.70
2022-09-06T00:40:57.353Z,0.60
2022-09-06T00:45:49.397Z,0.70
2022-09-06T00:50:43.044Z,0.70
2022-09-06T00:55:34.729Z,0.65
2022-09-06T01:00:26.411Z,0.50
2022-09-06T01:05:18.671Z,0.50
2022-09-06T01:10:22.517Z,0.50
2022-09-06T01:15:35.154Z,0.50
2022-09-06T01:21:04.881Z,0.40
2022-09-06T01:26:25.261Z,0.40
2022-09-06T01:31:26.903Z,0.32
2022-09-06T01:36:24.317Z,0.35
2022-09-06T01:41:15.945Z,0.40
2022-09-06T01:46:33.394Z,0.38
2022-09-06T01:51:47.861Z,0.40
2022-09-06T01:56:51.875Z,0.50
2022-09-06T02:02:01.648Z,0.60
2022-09-06T02:07:03.457Z,0.50
2022-09-06T02:11:59.729Z,0.60
2022-09-06T02:16:54.027Z,0.60
2022-09-06T02:21:47.711Z,0.68
2022-09-06T02:26:43.722Z,0.80
2022-09-06T02:31:42.692Z,1.00
2022-09-06T02:36:37.362Z,0.65
2022-09-06T02:41:31.092Z,0.55
2022-09-06T02:46:24.500Z,0.50
2022-09-06T02:51:16.637Z,0.50
2022-09-06T02:56:08.454Z,0.40
2022-09-06T03:01:00.248Z,0.52
2022-09-06T03:05:53.480Z,0.50
2022-09-06T03:10:50.093Z,0.50
2022-09-06T03:15:41.802Z,0.50
2022-09-06T03:20:37.001Z,0.65
2022-09-06T03:25:29.043Z,0.70
2022-09-06T03:30:20.669Z,0.65
2022-09-06T03:35:12.258Z,0.60
2022-09-06T03:40:05.265Z,0.60
2022-09-06T03:44:56.988Z,0.90
2022-09-06T03:49:48.657Z,2.03
2022-09-06T03:54:40.832Z,2.30
2022-09-06T03:59:32.690Z,3.00
2022-09-06T04:04:24.577Z,2.53
2022-09-06T04:09:16.499Z,3.88
2022-09-06T04:14:08.189Z,3.80
2022-09-06T04:19:01.952Z,4.43
2022-09-06T04:23:53.682Z,4.03
2022-09-06T04:28:45.373Z,5.78
2022-09-06T04:33:38.301Z,5.65
2022-09-06T04:38:31.450Z,5.82
2022-09-06T04:43:23.615Z,5.93
2022-09-06T04:48:15.768Z,6.25
2022-09-06T04:53:08.515Z,7.63
2022-09-06T04:58:01.446Z,8.25
2022-09-06T05:02:53.066Z,7.88
2022-09-06T05:07:44.876Z,7.22
2022-09-06T05:12:38.840Z,8.40
2022-09-06T05:17:33.854Z,7.90
2022-09-06T05:22:25.448Z,9.20
2022-09-06T05:27:17.039Z,9.77
2022-09-06T05:32:08.709Z,9.07
2022-09-06T05:37:00.462Z,10.55
2022-09-06T05:41:52.146Z,10.25
2022-09-06T05:46:45.362Z,10.88
2022-09-06T05:51:37.033Z,11.77
2022-09-06T05:56:28.977Z,10.80
2022-09-06T06:01:27.550Z,10.60
2022-09-06T06:06:20.201Z,10.82
2022-09-06T06:11:12.258Z,9.85
2022-09-06T06:16:04.086Z,11.27
2022-09-06T06:21:08.608Z,11.57
2022-09-06T06:26:00.225Z,11.25
2022-09-06T06:30:51.846Z,12.45
2022-09-06T06:35:57.488Z,12.73
2022-09-06T06:40:49.108Z,11.57
2022-09-06T06:45:40.766Z,11.82
2022-09-06T06:50:32.422Z,12.88
2022-09-06T06:55:24.012Z,12.48
2022-09-06T07:00:15.808Z,12.45
2022-09-06T07:10:35.573Z,10.63
2022-09-06T07:15:27.438Z,11.02
2022-09-06T07:20:20.564Z,12.15
2022-09-06T07:25:16.417Z,10.15
2022-09-06T07:30:11.446Z,11.55
2022-09-06T07:35:03.093Z,9.95
2022-09-06T07:39:54.759Z,11.65
2022-09-06T07:44:46.511Z,10.75
2022-09-06T07:49:38.165Z,11.40
2022-09-06T07:54:31.007Z,10.68
2022-09-06T07:59:23.176Z,11.18
2022-09-06T08:04:14.908Z,10.50
2022-09-06T08:09:08.916Z,9.07
2022-09-06T08:14:02.339Z,7.80
2022-09-06T08:18:56.178Z,7.05
2022-09-06T08:23:53.118Z,7.03
2022-09-06T08:28:45.062Z,6.33
2022-09-06T08:33:37.706Z,6.15
2022-09-06T08:38:29.735Z,7.50
2022-09-06T08:43:22.982Z,6.63
2022-09-06T08:48:15.212Z,7.55
2022-09-06T08:53:17.963Z,6.32
2022-09-06T08:58:20.523Z,6.00
2022-09-06T09:03:17.202Z,6.22
2022-09-06T09:08:29.993Z,4.93
2022-09-06T09:13:32.409Z,5.20
2022-09-06T09:18:30.411Z,3.47
2022-09-06T09:23:22.076Z,3.83
2022-09-06T09:28:19.034Z,3.67
2022-09-06T09:33:25.873Z,3.03
2022-09-06T09:38:30.000Z,1.65
2022-09-06T09:43:24.804Z,2.00
2022-09-06T09:48:24.909Z,1.38
2022-09-06T09:53:21.582Z,1.55
2022-09-06T09:58:34.288Z,1.30
2022-09-06T10:03:29.749Z,0.55
2022-09-06T10:08:25.114Z,1.17
2022-09-06T10:13:20.223Z,0.50
2022-09-06T10:18:20.682Z,0.60
2022-09-06T10:29:04.218Z,0.50
2022-09-06T10:34:17.576Z,0.50
2022-09-06T10:39:31.364Z,0.50
2022-09-06T10:44:52.139Z,0.50
2022-09-06T10:49:56.307Z,0.45
2022-09-06T10:54:48.603Z,0.68
2022-09-06T10:59:51.879Z,0.38
2022-09-06T11:10:07.859Z,0.40
2022-09-06T11:15:03.158Z,0.40
2022-09-06T11:20:29.818Z,0.50
2022-09-06T11:25:52.428Z,0.47
2022-09-06T11:30:50.570Z,0.82
2022-09-06T11:35:42.888Z,0.55
2022-09-06T11:40:41.656Z,0.50
2022-09-06T11:45:45.101Z,0.50
2022-09-06T11:50:59.537Z,0.50
2022-09-06T11:56:11.777Z,0.50
2022-09-06T12:01:12.530Z,0.50
2022-09-06T12:06:25.063Z,0.65
2022-09-06T12:11:39.251Z,0.40
2022-09-06T12:16:55.885Z,0.60
2022-09-06T12:21:47.804Z,0.80
2022-09-06T12:27:08.279Z,0.55
2022-09-06T12:32:05.859Z,0.90
2022-09-06T12:37:04.542Z,0.75
2022-09-06T12:42:00.405Z,0.60
2022-09-06T12:46:52.306Z,0.55
2022-09-06T12:51:44.373Z,1.02
2022-09-06T12:56:36.121Z,1.00
2022-09-06T13:01:33.807Z,0.70
2022-09-06T13:06:27.494Z,0.77
2022-09-06T13:11:28.461Z,0.80
2022-09-06T13:16:26.929Z,0.57
2022-09-06T13:21:32.933Z,0.40
2022-09-06T13:26:40.498Z,0.70
2022-09-06T13:31:32.859Z,0.50
2022-09-06T13:36:32.331Z,0.50
2022-09-06T13:41:27.146Z,0.40
2022-09-06T13:46:18.850Z,0.40
2022-09-06T13:51:10.638Z,0.45
2022-09-06T13:56:02.972Z,0.40
2022-09-06T14:00:54.846Z,0.47
2022-09-06T14:05:47.478Z,0.60
2022-09-06T14:10:39.394Z,0.60
2022-09-06T14:15:31.119Z,0.57
2022-09-06T14:20:22.898Z,0.40
2022-09-06T14:25:14.577Z,0.45
2022-09-06T14:30:06.710Z,0.40
2022-09-06T14:34:58.769Z,0.45
2022-09-06T14:40:27.676Z,0.50
2022-09-06T14:45:20.033Z,0.45
2022-09-06T14:50:12.229Z,0.40
2022-09-06T14:55:04.254Z,0.50
2022-09-06T14:59:56.329Z,0.50
2022-09-06T15:04:48.305Z,0.50
2022-09-06T15:09:40.241Z,0.40
2022-09-06T15:14:32.002Z,0.40
2022-09-06T15:19:25.114Z,0.50
2022-09-06T15:24:17.432Z,0.47
2022-09-06T15:29:11.868Z,0.30
2022-09-06T15:34:03.705Z,0.40
2022-09-06T15:38:59.981Z,0.30
2022-09-06T15:43:54.945Z,0.38
2022-09-06T15:48:49.166Z,0.47
2022-09-06T15:53:41.414Z,0.32
2022-09-06T15:58:33.556Z,0.57
2022-09-06T16:03:25.369Z,0.40
2022-09-06T16:08:17.439Z,0.40
2022-09-06T16:13:09.114Z,0.50
2022-09-06T16:18:05.516Z,0.50
2022-09-06T16:22:58.174Z,0.40
2022-09-06T16:27:49.991Z,0.50
2022-09-06T16:32:41.879Z,0.40
2022-09-06T16:37:33.717Z,0.40
2022-09-06T16:42:25.586Z,0.60
2022-09-06T16:47:17.380Z,0.40
2022-09-06T16:52:09.190Z,0.47
2022-09-06T16:57:01.744Z,0.45
2022-09-06T17:01:56.162Z,0.47
2022-09-06T17:06:48.081Z,0.40
2022-09-06T17:11:40.365Z,0.70
2022-09-06T17:16:50.742Z,0.50
2022-09-06T17:21:42.739Z,0.60
2022-09-06T17:26:36.652Z,0.50
2022-09-06T17:31:28.731Z,0.63
2022-09-06T17:36:32.613Z,0.63
2022-09-06T17:41:28.059Z,0.50
2022-09-06T17:46:24.205Z,0.50
2022-09-06T17:51:18.985Z,0.57
2022-09-06T17:56:13.373Z,0.40
2022-09-06T18:01:10.531Z,0.50
2022-09-06T18:06:07.970Z,0.60
2022-09-06T18:10:59.734Z,0.45
2022-09-06T18:15:51.383Z,0.32
2022-09-06T18:20:43.101Z,0.40
2022-09-06T18:25:34.878Z,0.40
2022-09-06T18:30:26.566Z,0.35
2022-09-06T18:35:18.293Z,0.52
2022-09-06T18:40:10.372Z,0.40
2022-09-06T18:45:02.154Z,0.40
2022-09-06T18:49:53.803Z,0.52
2022-09-06T18:54:45.449Z,0.40
2022-09-06T18:59:37.350Z,0.68
2022-09-06T19:04:29.158Z,0.55
2022-09-06T19:09:20.854Z,0.50
2022-09-06T19:14:13.760Z,0.40
2022-09-06T19:19:08.452Z,0.77
2022-09-06T19:24:06.191Z,0.60
2022-09-06T19:29:00.416Z,0.43
2022-09-06T19:33:52.223Z,0.47
2022-09-06T19:39:02.677Z,0.30
2022-09-06T19:43:57.014Z,0.40
2022-09-06T19:48:51.314Z,0.50
2022-09-06T19:53:46.985Z,0.68
2022-09-06T19:58:39.851Z,0.47
2022-09-06T20:03:32.754Z,0.50
2022-09-06T20:08:25.058Z,0.43
2022-09-06T20:13:16.765Z,0.30
2022-09-06T20:18:08.419Z,0.40
2022-09-06T20:23:00.078Z,0.60
2022-09-06T20:27:51.751Z,0.55
2022-09-06T20:32:43.442Z,0.40
2022-09-06T20:37:37.598Z,0.50
2022-09-06T20:42:29.256Z,0.50
2022-09-06T20:47:21.230Z,0.47
2022-09-06T20:52:12.870Z,0.40
2022-09-06T20:57:04.753Z,0.50
2022-09-06T21:01:56.634Z,0.50
2022-09-06T21:06:51.010Z,0.57
2022-09-06T21:11:43.391Z,0.50
2022-09-06T21:16:36.588Z,0.50
2022-09-06T21:21:30.106Z,0.60
2022-09-06T21:26:22.601Z,0.50
2022-09-06T21:31:22.051Z,0.50
2022-09-06T21:36:16.886Z,0.57
2022-09-06T21:41:10.317Z,0.52
2022-09-06T21:46:23.027Z,0.63
2022-09-06T21:51:17.484Z,0.50
2022-09-06T21:56:09.346Z,0.50
2022-09-06T22:01:02.238Z,0.60
2022-09-06T22:05:55.199Z,0.47
2022-09-06T22:10:48.749Z,0.70
2022-09-06T22:15:40.491Z,0.50
2022-09-06T22:20:32.289Z,0.50
2022-09-06T22:25:23.932Z,0.40
2022-09-06T22:30:15.633Z,0.68
2022-09-06T22:35:07.921Z,0.50
2022-09-06T22:40:00.954Z,1.08
2022-09-06T22:44:53.341Z,0.65
2022-09-06T22:49:44.989Z,0.40
2022-09-06T22:54:38.150Z,0.57
2022-09-06T22:59:29.800Z,0.60
2022-09-06T23:04:21.632Z,0.60
2022-09-06T23:09:13.441Z,0.88
2022-09-06T23:14:05.244Z,0.80
2022-09-06T23:18:56.893Z,0.60
2022-09-06T23:23:50.640Z,0.60
2022-09-06T23:28:42.652Z,0.60
2022-09-06T23:33:36.259Z,0.55
2022-09-06T23:38:28.217Z,0.70
2022-09-06T23:43:20.775Z,0.80
2022-09-06T23:48:12.447Z,0.93
2022-09-06T23:53:04.071Z,0.60
2022-09-06T23:57:55.680Z,1.08
